Time;durP1;ratioP1;P1;durP2;ratioP2;P2;SDS_P1;SDS_P2;PMS_P1;PMS_P2;Temp;Humidity;BMP_temperature;BMP_pressure;BME280_temperature;BME280_humidity;BME280_pressure;Samples;Min_cycle;Max_cycle;Signal;HPM_P1;HPM_P2
2021/07/29 00:01:22;;;;;;;7.60;3.75;;;13.80;99.90;;;;;;20663830;28;20042;-49
2021/07/29 00:11:23;;;;;;;5.70;3.90;;;13.50;99.90;;;;;;20663299;28;20408;-49
2021/07/29 00:21:25;;;;;;;4.18;3.08;;;13.40;99.90;;;;;;20662372;28;20084;-50
2021/07/29 00:31:34;;;;;;;4.53;3.00;;;13.20;99.90;;;;;;20661153;28;20026;-49
2021/07/29 00:41:35;;;;;;;5.25;3.20;;;13.20;99.90;;;;;;20661158;28;20046;-48
2021/07/29 00:51:37;;;;;;;5.93;3.00;;;13.20;99.90;;;;;;20660710;28;20035;-51
2021/07/29 01:01:39;;;;;;;5.40;3.00;;;13.20;99.90;;;;;;20659205;28;20038;-52
2021/07/29 01:11:42;;;;;;;5.55;3.15;;;13.20;99.90;;;;;;20658778;28;20034;-49
2021/07/29 01:21:44;;;;;;;4.18;2.90;;;13.10;99.90;;;;;;20657498;28;20034;-49
2021/07/29 01:31:46;;;;;;;4.68;3.25;;;12.90;99.90;;;;;;20656626;28;20034;-51
2021/07/29 01:41:48;;;;;;;5.18;3.40;;;12.70;99.90;;;;;;20656267;28;20432;-48
2021/07/29 01:51:50;;;;;;;5.82;3.58;;;12.80;99.90;;;;;;20656153;28;20038;-49
2021/07/29 02:01:51;;;;;;;6.88;5.03;;;12.80;99.90;;;;;;20654690;28;20057;-49
2021/07/29 02:11:53;;;;;;;8.15;5.60;;;12.70;99.90;;;;;;20654341;28;20068;-51
2021/07/29 02:21:54;;;;;;;8.18;4.90;;;12.60;99.90;;;;;;20653717;28;20347;-49
2021/07/29 02:31:56;;;;;;;5.47;3.50;;;12.80;99.90;;;;;;20653144;28;20038;-50
2021/07/29 02:42:01;;;;;;;4.20;3.45;;;12.80;99.90;;;;;;20652981;28;20130;-50
2021/07/29 02:52:03;;;;;;;5.05;3.00;;;12.80;99.90;;;;;;20652544;28;20423;-49
2021/07/29 03:02:05;;;;;;;6.15;2.95;;;12.90;99.90;;;;;;20652447;28;20093;-51
2021/07/29 03:12:07;;;;;;;5.03;3.05;;;12.70;99.90;;;;;;20651595;28;20508;-50
2021/07/29 03:22:08;;;;;;;6.93;3.90;;;12.70;99.90;;;;;;20651683;28;20054;-50
2021/07/29 03:32:10;;;;;;;5.57;3.47;;;12.50;99.90;;;;;;20651592;28;20436;-49
2021/07/29 03:42:12;;;;;;;7.50;3.97;;;12.40;99.90;;;;;;20659474;28;20039;-51
2021/07/29 03:52:13;;;;;;;6.93;4.22;;;12.40;99.90;;;;;;20664288;28;20030;-48
2021/07/29 04:02:15;;;;;;;5.65;3.67;;;12.50;99.90;;;;;;20663680;28;20050;-49
2021/07/29 04:12:17;;;;;;;6.88;3.85;;;12.30;99.90;;;;;;20663232;28;20038;-53
2021/07/29 04:22:19;;;;;;;7.45;4.05;;;12.40;99.90;;;;;;20662723;28;20045;-50
2021/07/29 04:32:21;;;;;;;4.93;4.07;;;12.70;99.90;;;;;;20661764;28;20407;-51
2021/07/29 04:42:23;;;;;;;6.80;3.75;;;12.90;99.90;;;;;;20660571;28;20038;-54
2021/07/29 04:52:24;;;;;;;7.90;3.85;;;13.10;99.90;;;;;;20659368;28;20096;-49
2021/07/29 05:02:26;;;;;;;8.63;4.38;;;13.00;99.90;;;;;;20657850;28;20038;-48
2021/07/29 05:12:28;;;;;;;4.60;3.75;;;12.90;99.90;;;;;;20658394;28;20069;-50
2021/07/29 05:22:30;;;;;;;6.63;4.10;;;13.00;99.90;;;;;;20657946;28;20392;-49
2021/07/29 05:32:34;;;;;;;7.15;4.60;;;13.20;99.90;;;;;;20656548;28;20092;-50
2021/07/29 05:42:36;;;;;;;6.13;3.85;;;13.30;99.90;;;;;;20656298;28;20030;-52
2021/07/29 05:52:38;;;;;;;6.38;4.20;;;13.40;99.90;;;;;;20657247;28;20038;-50
2021/07/29 06:02:40;;;;;;;8.27;4.47;;;13.40;99.90;;;;;;20654327;28;20081;-50
2021/07/29 06:12:42;;;;;;;6.32;4.32;;;13.70;99.90;;;;;;20647266;28;20042;-50
2021/07/29 06:22:45;;;;;;;5.72;4.00;;;14.10;99.90;;;;;;20654528;28;20042;-51
2021/07/29 06:32:47;;;;;;;4.05;2.63;;;14.50;99.90;;;;;;20653286;28;20031;-50
2021/07/29 06:42:48;;;;;;;5.53;2.75;;;18.90;99.90;;;;;;20652614;28;20380;-51
2021/07/29 06:52:50;;;;;;;5.85;2.40;;;22.80;99.90;;;;;;20652429;28;20084;-48
2021/07/29 07:02:52;;;;;;;3.88;2.53;;;24.50;99.90;;;;;;20650532;28;20050;-50
2021/07/29 07:12:54;;;;;;;2.92;2.15;;;26.20;97.30;;;;;;20654212;28;20042;-48
2021/07/29 07:22:56;;;;;;;3.78;2.75;;;27.70;91.80;;;;;;20666949;28;20574;-54
2021/07/29 07:33:01;;;;;;;3.83;2.72;;;28.00;91.70;;;;;;20666491;28;20609;-48
2021/07/29 07:43:03;;;;;;;5.53;3.10;;;28.20;89.70;;;;;;20666124;28;20038;-50
2021/07/29 07:53:05;;;;;;;3.47;2.95;;;27.70;90.60;;;;;;20664356;28;20045;-53
2021/07/29 08:03:07;;;;;;;3.83;3.22;;;27.50;92.40;;;;;;20663493;28;20590;-50
2021/07/29 08:13:11;;;;;;;20.20;4.13;;;27.10;91.80;;;;;;20663326;28;20030;-52
2021/07/29 08:23:13;;;;;;;6.50;3.35;;;26.80;91.60;;;;;;20662821;28;20039;-53
2021/07/29 08:33:15;;;;;;;3.70;2.75;;;27.10;93.20;;;;;;20661641;28;20084;-49
2021/07/29 08:43:19;;;;;;;3.20;2.78;;;27.60;93.30;;;;;;20661395;28;20480;-48
2021/07/29 08:53:22;;;;;;;5.53;3.17;;;27.90;92.40;;;;;;20674562;28;20041;-49
2021/07/29 09:03:29;;;;;;;4.65;3.22;;;28.20;93.60;;;;;;20658573;28;20042;-47
2021/07/29 09:13:38;;;;;;;9.60;3.65;;;28.40;92.30;;;;;;19771497;28;10001031;-49
2021/07/29 09:23:40;;;;;;;6.85;3.55;;;28.20;93.20;;;;;;20663988;28;20022;-49
2021/07/29 09:33:59;;;;;;;6.68;3.60;;;27.50;93.50;;;;;;20661921;28;20034;-51
2021/07/29 09:44:01;;;;;;;5.55;3.72;;;27.70;93.10;;;;;;20662247;28;20026;-51
2021/07/29 09:54:02;;;;;;;5.57;3.60;;;28.40;92.60;;;;;;20664218;28;20026;-51
2021/07/29 10:04:06;;;;;;;5.63;3.55;;;28.90;91.50;;;;;;20660623;28;20046;-50
2021/07/29 10:14:10;;;;;;;4.70;3.47;;;27.50;92.40;;;;;;20660369;28;20096;-50
2021/07/29 10:24:13;;;;;;;6.00;3.55;;;27.50;93.80;;;;;;20659814;28;20030;-51
2021/07/29 10:34:27;;;;;;;9.10;3.75;;;27.70;93.60;;;;;;20659233;28;20443;-54
2021/07/29 10:44:32;;;;;;;7.90;3.25;;;28.20;92.10;;;;;;20659215;28;20472;-55
2021/07/29 10:54:39;;;;;;;5.03;3.13;;;27.80;90.60;;;;;;20672069;28;20035;-52
2021/07/29 11:04:55;;;;;;;5.03;3.20;;;26.80;92.10;;;;;;20674636;28;20072;-54
2021/07/29 11:15:00;;;;;;;4.35;2.92;;;26.30;93.50;;;;;;20673851;28;20034;-51
2021/07/29 11:25:11;;;;;;;5.22;3.30;;;26.20;93.90;;;;;;20673390;28;20034;-54
2021/07/29 11:35:16;;;;;;;5.00;3.67;;;26.10;93.90;;;;;;20672762;28;20038;-54
2021/07/29 11:45:29;;;;;;;3.95;3.10;;;26.30;94.30;;;;;;20670757;28;20034;-56
2021/07/29 11:55:31;;;;;;;10.85;3.80;;;26.60;94.10;;;;;;20670401;28;20042;-51
2021/07/29 12:05:34;;;;;;;4.68;2.88;;;27.00;95.00;;;;;;20669513;28;20026;-51
2021/07/29 12:15:39;;;;;;;;;;;28.00;93.90;;;;;;20669844;28;20041;-54
2021/07/29 12:25:41;;;;;;;3.95;3.30;;;28.60;99.40;;;;;;20669139;28;20287;-52
2021/07/29 12:36:09;;;;;;;5.20;3.60;;;28.30;87.50;;;;;;20667759;28;20038;-53
2021/07/29 12:46:21;;;;;;;6.20;3.72;;;27.70;90.70;;;;;;20667035;28;20081;-54
2021/07/29 12:56:22;;;;;;;4.85;3.53;;;27.90;92.10;;;;;;20665952;28;20370;-56
2021/07/29 13:06:25;;;;;;;4.20;3.50;;;27.70;93.10;;;;;;20666888;28;20065;-51
2021/07/29 13:16:28;;;;;;;3.92;3.40;;;27.30;93.70;;;;;;20663166;28;20501;-53
2021/07/29 13:26:29;;;;;;;8.98;3.92;;;27.10;91.20;;;;;;20662162;28;20456;-52
2021/07/29 13:36:31;;;;;;;4.85;3.20;;;27.90;90.70;;;;;;20663156;28;20092;-55
2021/07/29 13:46:32;;;;;;;7.53;3.67;;;28.40;91.30;;;;;;20663608;28;20030;-56
2021/07/29 13:56:35;;;;;;;4.13;3.22;;;28.60;91.00;;;;;;20661225;28;20524;-56
2021/07/29 14:06:36;;;;;;;7.50;3.67;;;28.20;89.60;;;;;;20660377;28;20034;-51
2021/07/29 14:16:40;;;;;;;8.68;3.83;;;28.00;90.40;;;;;;20660115;28;20042;-53
2021/07/29 14:26:42;;;;;;;5.82;3.55;;;27.80;90.20;;;;;;20661541;28;20046;-56
2021/07/29 14:36:44;;;;;;;6.03;4.50;;;27.90;91.00;;;;;;20658924;28;20037;-54
2021/07/29 14:57:13;;;;;;;6.47;4.63;;;28.50;88.30;;;;;;20658154;28;20043;-53
2021/07/29 16:09:24;;;;;;;5.50;4.50;;;28.50;86.00;;;;;;20669926;28;20041;-51
2021/07/29 16:19:29;;;;;;;8.27;4.88;;;26.60;88.30;;;;;;20669400;28;20473;-55
2021/07/29 16:29:30;;;;;;;8.00;4.60;;;24.60;92.30;;;;;;20669591;28;20038;-53
2021/07/29 16:39:35;;;;;;;5.55;4.45;;;23.60;93.70;;;;;;20667745;28;20100;-51
2021/07/29 16:49:36;;;;;;;8.68;5.53;;;22.30;96.50;;;;;;20667240;28;20110;-54
2021/07/29 16:59:38;;;;;;;7.78;5.93;;;21.10;99.30;;;;;;20665573;28;20044;-55
2021/07/29 17:09:40;;;;;;;11.25;6.50;;;19.90;99.90;;;;;;20664892;28;20089;-55
2021/07/29 17:19:42;;;;;;;10.27;6.15;;;19.00;99.90;;;;;;20664356;28;20039;-50
2021/07/29 17:29:43;;;;;;;9.45;6.20;;;18.40;99.90;;;;;;20663197;28;20464;-55
2021/07/29 17:39:45;;;;;;;8.45;5.85;;;17.90;99.90;;;;;;20662809;28;20424;-51
2021/07/29 17:49:47;;;;;;;8.48;4.28;;;17.40;99.90;;;;;;20662913;28;20432;-49
2021/07/29 17:59:49;;;;;;;8.18;3.80;;;17.10;99.90;;;;;;20660199;28;20448;-50
2021/07/29 18:09:51;;;;;;;5.35;3.10;;;17.40;99.90;;;;;;20660610;28;20038;-51
2021/07/29 18:19:54;;;;;;;6.00;3.45;;;17.60;99.90;;;;;;20659952;28;20050;-50
2021/07/29 18:29:55;;;;;;;4.93;3.47;;;17.70;99.90;;;;;;20659454;28;20034;-50
2021/07/29 18:39:57;;;;;;;39.95;3.80;;;17.70;99.90;;;;;;20658988;28;20034;-53
2021/07/29 18:50:00;;;;;;;4.72;2.50;;;17.70;98.30;;;;;;20657970;28;20053;-55
2021/07/29 19:00:03;;;;;;;5.97;3.72;;;17.80;94.50;;;;;;20657756;28;20034;-50
2021/07/29 19:10:07;;;;;;;7.93;4.10;;;17.90;97.20;;;;;;20662587;28;20046;-53
2021/07/29 19:20:10;;;;;;;6.10;3.63;;;17.50;99.90;;;;;;20673049;28;20043;-50
2021/07/29 19:30:15;;;;;;;8.00;4.93;;;17.40;99.90;;;;;;20672212;28;20318;-49
2021/07/29 19:40:19;;;;;;;8.02;5.50;;;17.60;99.90;;;;;;20671659;28;20041;-48
2021/07/29 19:50:23;;;;;;;11.77;7.68;;;18.80;99.90;;;;;;20670607;28;20030;-48
2021/07/29 20:00:26;;;;;;;14.52;5.68;;;18.80;99.90;;;;;;20669071;28;20054;-61
2021/07/29 20:10:28;;;;;;;10.95;6.72;;;18.60;99.90;;;;;;20669637;28;20042;-64
2021/07/29 20:20:29;;;;;;;9.00;6.15;;;18.60;99.90;;;;;;20668210;28;20030;-65
2021/07/29 20:30:33;;;;;;;10.05;6.15;;;18.20;99.90;;;;;;20668024;28;20042;-65
2021/07/29 20:40:37;;;;;;;8.45;5.50;;;18.00;99.90;;;;;;20667167;28;20093;-65
2021/07/29 20:50:40;;;;;;;10.50;5.55;;;18.00;99.90;;;;;;20666078;28;20424;-58
2021/07/29 21:00:43;;;;;;;7.30;5.57;;;18.10;99.90;;;;;;20679675;28;20046;-58
2021/07/29 21:10:46;;;;;;;7.65;5.55;;;18.00;99.90;;;;;;20664302;28;20101;-60
2021/07/29 21:20:48;;;;;;;9.63;4.97;;;17.90;99.90;;;;;;20663949;28;20105;-64
2021/07/29 21:30:53;;;;;;;6.53;4.80;;;17.40;99.90;;;;;;20662886;28;20100;-62
2021/07/29 21:40:57;;;;;;;7.15;4.45;;;17.80;99.90;;;;;;20663274;28;20548;-52
2021/07/29 21:50:59;;;;;;;7.53;4.55;;;17.90;99.90;;;;;;20662745;28;20038;-52
2021/07/29 22:01:01;;;;;;;6.63;5.05;;;17.70;99.90;;;;;;20661291;28;20102;-49
2021/07/29 22:11:03;;;;;;;6.32;3.75;;;17.20;99.90;;;;;;20660272;28;20057;-52
2021/07/29 22:21:05;;;;;;;18.25;9.10;;;16.60;99.90;;;;;;20660113;28;20042;-51
2021/07/29 22:31:07;;;;;;;12.25;6.95;;;15.90;99.90;;;;;;20659731;28;20775;-52
2021/07/29 22:41:09;;;;;;;9.00;6.28;;;15.70;99.90;;;;;;20659304;28;20034;-49
2021/07/29 22:51:11;;;;;;;7.45;4.82;;;15.60;99.90;;;;;;20659094;28;20530;-50
2021/07/29 23:01:12;;;;;;;7.20;4.85;;;15.60;99.90;;;;;;20659199;28;20053;-53
2021/07/29 23:11:14;;;;;;;7.60;4.68;;;15.10;99.90;;;;;;20658274;28;20393;-50
2021/07/29 23:21:16;;;;;;;6.68;4.75;;;14.70;99.90;;;;;;20657807;28;20034;-49
2021/07/29 23:31:17;;;;;;;7.07;5.15;;;14.40;99.90;;;;;;20657426;28;20101;-50
2021/07/29 23:41:25;;;;;;;6.47;4.45;;;14.30;99.90;;;;;;20658371;28;20062;-52
2021/07/29 23:51:26;;;;;;;8.38;6.32;;;14.40;99.90;;;;;;20656451;28;20046;-51
